sensor_id;sensor_type;location;lat;lon;timestamp;temperature;humidity
13336;DHT22;6737;51.480;11.962;2022-12-10T00:01:14;1.40;99.90
13336;DHT22;6737;51.480;11.962;2022-12-10T00:03:41;1.40;99.90
13336;DHT22;6737;51.480;11.962;2022-12-10T00:06:10;1.40;99.90
13336;DHT22;6737;51.480;11.962;2022-12-10T00:08:37;1.40;99.90
13336;DHT22;6737;51.480;11.962;2022-12-10T00:11:05;1.40;99.90
13336;DHT22;6737;51.480;11.962;2022-12-10T00:13:32;1.40;99.90
13336;DHT22;6737;51.480;11.962;2022-12-10T00:16:05;1.40;99.90
13336;DHT22;6737;51.480;11.962;2022-12-10T00:18:32;1.40;99.90
13336;DHT22;6737;51.480;11.962;2022-12-10T00:21:06;1.40;99.90
13336;DHT22;6737;51.480;11.962;2022-12-10T00:23:32;1.40;99.90
13336;DHT22;6737;51.480;11.962;2022-12-10T00:26:10;1.40;99.90
13336;DHT22;6737;51.480;11.962;2022-12-10T00:28:37;1.40;99.90
13336;DHT22;6737;51.480;11.962;2022-12-10T00:31:09;1.40;99.90
13336;DHT22;6737;51.480;11.962;2022-12-10T00:33:35;1.30;99.90
13336;DHT22;6737;51.480;11.962;2022-12-10T00:36:09;1.30;99.90
13336;DHT22;6737;51.480;11.962;2022-12-10T00:38:37;1.30;99.90
13336;DHT22;6737;51.480;11.962;2022-12-10T00:41:04;1.30;99.90
13336;DHT22;6737;51.480;11.962;2022-12-10T00:43:29;1.30;99.90
13336;DHT22;6737;51.480;11.962;2022-12-10T00:45:56;1.30;99.90
13336;DHT22;6737;51.480;11.962;2022-12-10T00:48:23;1.30;99.90
13336;DHT22;6737;51.480;11.962;2022-12-10T00:51:09;1.20;99.90
13336;DHT22;6737;51.480;11.962;2022-12-10T00:53:37;1.20;99.90
13336;DHT22;6737;51.480;11.962;2022-12-10T00:56:03;1.30;99.90
13336;DHT22;6737;51.480;11.962;2022-12-10T00:58:31;1.20;99.90
13336;DHT22;6737;51.480;11.962;2022-12-10T01:01:12;1.20;99.90
13336;DHT22;6737;51.480;11.962;2022-12-10T01:03:39;1.20;99.90
13336;DHT22;6737;51.480;11.962;2022-12-10T01:08:47;1.20;99.90
13336;DHT22;6737;51.480;11.962;2022-12-10T01:11:14;1.20;99.90
13336;DHT22;6737;51.480;11.962;2022-12-10T01:13:41;1.20;99.90
13336;DHT22;6737;51.480;11.962;2022-12-10T01:16:09;1.20;99.90
13336;DHT22;6737;51.480;11.962;2022-12-10T01:18:36;1.20;99.90
13336;DHT22;6737;51.480;11.962;2022-12-10T01:21:07;1.20;99.90
13336;DHT22;6737;51.480;11.962;2022-12-10T01:23:35;1.20;99.90
13336;DHT22;6737;51.480;11.962;2022-12-10T01:26:04;1.20;99.90
13336;DHT22;6737;51.480;11.962;2022-12-10T01:28:32;1.20;99.90
13336;DHT22;6737;51.480;11.962;2022-12-10T01:31:02;1.20;99.90
13336;DHT22;6737;51.480;11.962;2022-12-10T01:33:29;1.20;99.90
13336;DHT22;6737;51.480;11.962;2022-12-10T01:35:55;1.10;99.90
13336;DHT22;6737;51.480;11.962;2022-12-10T01:38:21;1.20;99.90
13336;DHT22;6737;51.480;11.962;2022-12-10T01:40:48;1.10;99.90
13336;DHT22;6737;51.480;11.962;2022-12-10T01:43:15;1.10;99.90
13336;DHT22;6737;51.480;11.962;2022-12-10T01:45:40;1.10;99.90
13336;DHT22;6737;51.480;11.962;2022-12-10T01:48:07;1.10;99.90
13336;DHT22;6737;51.480;11.962;2022-12-10T01:50:33;1.10;99.90
13336;DHT22;6737;51.480;11.962;2022-12-10T01:52:58;1.10;99.90
13336;DHT22;6737;51.480;11.962;2022-12-10T01:55:47;1.10;99.90
13336;DHT22;6737;51.480;11.962;2022-12-10T01:58:15;1.10;99.90
13336;DHT22;6737;51.480;11.962;2022-12-10T02:01:05;1.10;99.90
13336;DHT22;6737;51.480;11.962;2022-12-10T02:09:15;1.00;99.90
13336;DHT22;6737;51.480;11.962;2022-12-10T02:14:32;1.00;99.90
13336;DHT22;6737;51.480;11.962;2022-12-10T02:17:14;1.00;99.90
13336;DHT22;6737;51.480;11.962;2022-12-10T02:22:26;1.10;99.90
13336;DHT22;6737;51.480;11.962;2022-12-10T02:24:55;1.10;99.90
13336;DHT22;6737;51.480;11.962;2022-12-10T02:30:05;1.00;99.90
13336;DHT22;6737;51.480;11.962;2022-12-10T02:32:35;1.10;99.90
13336;DHT22;6737;51.480;11.962;2022-12-10T02:35:06;1.10;99.90
13336;DHT22;6737;51.480;11.962;2022-12-10T02:37:37;1.00;99.90
13336;DHT22;6737;51.480;11.962;2022-12-10T02:40:08;1.10;99.90
13336;DHT22;6737;51.480;11.962;2022-12-10T02:42:38;1.10;99.90
13336;DHT22;6737;51.480;11.962;2022-12-10T02:45:06;1.10;99.90
13336;DHT22;6737;51.480;11.962;2022-12-10T02:47:33;1.10;99.90
13336;DHT22;6737;51.480;11.962;2022-12-10T02:50:00;1.10;99.90
13336;DHT22;6737;51.480;11.962;2022-12-10T02:52:26;1.10;99.90
13336;DHT22;6737;51.480;11.962;2022-12-10T02:54:52;1.10;99.90
13336;DHT22;6737;51.480;11.962;2022-12-10T03:00:20;1.10;99.90
13336;DHT22;6737;51.480;11.962;2022-12-10T03:03:48;1.00;99.90
13336;DHT22;6737;51.480;11.962;2022-12-10T03:05:59;1.00;99.90
13336;DHT22;6737;51.480;11.962;2022-12-10T03:08:38;1.00;99.90
13336;DHT22;6737;51.480;11.962;2022-12-10T03:11:15;1.00;99.90
13336;DHT22;6737;51.480;11.962;2022-12-10T03:14:10;1.00;99.90
13336;DHT22;6737;51.480;11.962;2022-12-10T03:16:53;1.10;99.90
13336;DHT22;6737;51.480;11.962;2022-12-10T03:19:26;1.10;99.90
13336;DHT22;6737;51.480;11.962;2022-12-10T03:21:52;1.10;99.90
13336;DHT22;6737;51.480;11.962;2022-12-10T03:24:20;1.00;99.90
13336;DHT22;6737;51.480;11.962;2022-12-10T03:26:48;1.10;99.90
13336;DHT22;6737;51.480;11.962;2022-12-10T03:29:27;1.00;99.90
13336;DHT22;6737;51.480;11.962;2022-12-10T03:31:53;1.00;99.90
13336;DHT22;6737;51.480;11.962;2022-12-10T03:34:21;1.00;99.90
13336;DHT22;6737;51.480;11.962;2022-12-10T03:36:47;1.00;99.90
13336;DHT22;6737;51.480;11.962;2022-12-10T03:39:15;1.00;99.90
13336;DHT22;6737;51.480;11.962;2022-12-10T03:41:41;1.00;99.90
13336;DHT22;6737;51.480;11.962;2022-12-10T03:44:07;1.00;99.90
13336;DHT22;6737;51.480;11.962;2022-12-10T03:46:33;1.00;99.90
13336;DHT22;6737;51.480;11.962;2022-12-10T03:49:00;0.90;99.90
13336;DHT22;6737;51.480;11.962;2022-12-10T03:51:26;0.90;99.90
13336;DHT22;6737;51.480;11.962;2022-12-10T03:53:52;0.90;99.90
13336;DHT22;6737;51.480;11.962;2022-12-10T03:56:18;0.90;99.90
13336;DHT22;6737;51.480;11.962;2022-12-10T03:58:45;0.90;99.90
13336;DHT22;6737;51.480;11.962;2022-12-10T04:01:11;0.90;99.90
13336;DHT22;6737;51.480;11.962;2022-12-10T04:03:39;0.90;99.90
13336;DHT22;6737;51.480;11.962;2022-12-10T04:06:07;0.80;99.90
13336;DHT22;6737;51.480;11.962;2022-12-10T04:08:34;0.90;99.90
13336;DHT22;6737;51.480;11.962;2022-12-10T04:11:08;0.90;99.90
13336;DHT22;6737;51.480;11.962;2022-12-10T04:13:36;0.90;99.90
13336;DHT22;6737;51.480;11.962;2022-12-10T04:16:21;0.90;99.90
13336;DHT22;6737;51.480;11.962;2022-12-10T04:21:21;0.90;99.90
13336;DHT22;6737;51.480;11.962;2022-12-10T04:24:08;0.90;99.90
13336;DHT22;6737;51.480;11.962;2022-12-10T04:26:53;0.90;99.90
13336;DHT22;6737;51.480;11.962;2022-12-10T04:29:25;0.90;99.90
13336;DHT22;6737;51.480;11.962;2022-12-10T04:31:51;0.90;99.90
13336;DHT22;6737;51.480;11.962;2022-12-10T04:34:18;0.90;99.90
13336;DHT22;6737;51.480;11.962;2022-12-10T04:36:44;0.90;99.90
13336;DHT22;6737;51.480;11.962;2022-12-10T04:39:10;0.90;99.90
13336;DHT22;6737;51.480;11.962;2022-12-10T04:41:44;0.90;99.90
13336;DHT22;6737;51.480;11.962;2022-12-10T04:44:10;0.90;99.90
13336;DHT22;6737;51.480;11.962;2022-12-10T04:46:36;0.80;99.90
13336;DHT22;6737;51.480;11.962;2022-12-10T04:49:03;0.80;99.90
13336;DHT22;6737;51.480;11.962;2022-12-10T04:51:29;0.80;99.90
13336;DHT22;6737;51.480;11.962;2022-12-10T04:53:55;0.80;99.90
13336;DHT22;6737;51.480;11.962;2022-12-10T04:56:21;0.80;99.90
13336;DHT22;6737;51.480;11.962;2022-12-10T04:58:46;0.70;99.90
13336;DHT22;6737;51.480;11.962;2022-12-10T05:01:12;0.80;99.90
13336;DHT22;6737;51.480;11.962;2022-12-10T05:03:38;0.80;99.90
13336;DHT22;6737;51.480;11.962;2022-12-10T05:06:10;0.70;99.90
13336;DHT22;6737;51.480;11.962;2022-12-10T05:08:38;0.70;99.90
13336;DHT22;6737;51.480;11.962;2022-12-10T05:11:10;0.70;99.90
13336;DHT22;6737;51.480;11.962;2022-12-10T05:13:36;0.80;99.90
13336;DHT22;6737;51.480;11.962;2022-12-10T05:16:03;0.80;99.90
13336;DHT22;6737;51.480;11.962;2022-12-10T05:18:30;0.80;99.90
13336;DHT22;6737;51.480;11.962;2022-12-10T05:20:59;0.80;99.90
13336;DHT22;6737;51.480;11.962;2022-12-10T05:23:25;0.80;99.90
13336;DHT22;6737;51.480;11.962;2022-12-10T05:26:09;0.80;99.90
13336;DHT22;6737;51.480;11.962;2022-12-10T05:28:40;0.70;99.90
13336;DHT22;6737;51.480;11.962;2022-12-10T05:31:15;0.60;99.90
13336;DHT22;6737;51.480;11.962;2022-12-10T05:33:42;0.60;99.90
13336;DHT22;6737;51.480;11.962;2022-12-10T05:36:10;0.60;99.90
13336;DHT22;6737;51.480;11.962;2022-12-10T05:38:37;0.60;99.90
13336;DHT22;6737;51.480;11.962;2022-12-10T05:41:24;0.60;99.90
13336;DHT22;6737;51.480;11.962;2022-12-10T05:43:53;0.60;99.90
13336;DHT22;6737;51.480;11.962;2022-12-10T05:46:22;0.70;99.90
13336;DHT22;6737;51.480;11.962;2022-12-10T05:48:48;0.70;99.90
13336;DHT22;6737;51.480;11.962;2022-12-10T05:51:16;0.60;99.90
13336;DHT22;6737;51.480;11.962;2022-12-10T05:53:43;0.60;99.90
13336;DHT22;6737;51.480;11.962;2022-12-10T05:56:15;0.60;99.90
13336;DHT22;6737;51.480;11.962;2022-12-10T05:58:43;0.50;99.90
13336;DHT22;6737;51.480;11.962;2022-12-10T06:01:15;0.60;99.90
13336;DHT22;6737;51.480;11.962;2022-12-10T06:03:41;0.50;99.90
13336;DHT22;6737;51.480;11.962;2022-12-10T06:06:07;0.60;99.90
13336;DHT22;6737;51.480;11.962;2022-12-10T06:08:34;0.50;99.90
13336;DHT22;6737;51.480;11.962;2022-12-10T06:11:02;0.50;99.90
13336;DHT22;6737;51.480;11.962;2022-12-10T06:13:28;0.50;99.90
13336;DHT22;6737;51.480;11.962;2022-12-10T06:15:54;0.50;99.90
13336;DHT22;6737;51.480;11.962;2022-12-10T06:18:19;0.60;99.90
13336;DHT22;6737;51.480;11.962;2022-12-10T06:20:46;0.60;99.90
13336;DHT22;6737;51.480;11.962;2022-12-10T06:23:12;0.50;99.90
13336;DHT22;6737;51.480;11.962;2022-12-10T06:25:39;0.50;99.90
13336;DHT22;6737;51.480;11.962;2022-12-10T06:28:06;0.60;99.90
13336;DHT22;6737;51.480;11.962;2022-12-10T06:30:32;0.60;99.90
13336;DHT22;6737;51.480;11.962;2022-12-10T06:32:58;0.60;99.90
13336;DHT22;6737;51.480;11.962;2022-12-10T06:35:24;0.60;99.90
13336;DHT22;6737;51.480;11.962;2022-12-10T06:37:51;0.60;99.90
13336;DHT22;6737;51.480;11.962;2022-12-10T06:40:17;0.60;99.90
13336;DHT22;6737;51.480;11.962;2022-12-10T06:42:43;0.60;99.90
13336;DHT22;6737;51.480;11.962;2022-12-10T06:45:11;0.70;99.90
13336;DHT22;6737;51.480;11.962;2022-12-10T06:47:37;0.70;99.90
13336;DHT22;6737;51.480;11.962;2022-12-10T06:50:03;0.70;99.90
13336;DHT22;6737;51.480;11.962;2022-12-10T06:52:29;0.70;99.90
13336;DHT22;6737;51.480;11.962;2022-12-10T06:54:55;0.70;99.90
13336;DHT22;6737;51.480;11.962;2022-12-10T06:57:21;0.60;99.90
13336;DHT22;6737;51.480;11.962;2022-12-10T06:59:47;0.60;99.90
13336;DHT22;6737;51.480;11.962;2022-12-10T07:02:13;0.70;99.90
13336;DHT22;6737;51.480;11.962;2022-12-10T07:04:38;0.70;99.90
13336;DHT22;6737;51.480;11.962;2022-12-10T07:07:05;0.70;99.90
13336;DHT22;6737;51.480;11.962;2022-12-10T07:09:33;0.60;99.90
13336;DHT22;6737;51.480;11.962;2022-12-10T07:11:59;0.60;99.90
13336;DHT22;6737;51.480;11.962;2022-12-10T07:14:25;0.60;99.90
13336;DHT22;6737;51.480;11.962;2022-12-10T07:16:50;0.60;99.90
13336;DHT22;6737;51.480;11.962;2022-12-10T07:19:17;0.70;99.90
13336;DHT22;6737;51.480;11.962;2022-12-10T07:21:43;0.60;99.90
13336;DHT22;6737;51.480;11.962;2022-12-10T07:24:16;0.60;99.90
13336;DHT22;6737;51.480;11.962;2022-12-10T07:26:43;0.60;99.90
13336;DHT22;6737;51.480;11.962;2022-12-10T07:29:15;0.60;99.90
13336;DHT22;6737;51.480;11.962;2022-12-10T07:31:41;0.60;99.90
13336;DHT22;6737;51.480;11.962;2022-12-10T07:34:08;0.60;99.90
13336;DHT22;6737;51.480;11.962;2022-12-10T07:36:35;0.70;99.90
13336;DHT22;6737;51.480;11.962;2022-12-10T07:39:01;0.60;99.90
13336;DHT22;6737;51.480;11.962;2022-12-10T07:41:27;0.70;99.90
13336;DHT22;6737;51.480;11.962;2022-12-10T07:43:52;0.70;99.90
13336;DHT22;6737;51.480;11.962;2022-12-10T07:46:28;0.70;99.90
13336;DHT22;6737;51.480;11.962;2022-12-10T07:48:55;0.70;99.90
13336;DHT22;6737;51.480;11.962;2022-12-10T07:51:21;0.70;99.90
13336;DHT22;6737;51.480;11.962;2022-12-10T07:53:50;0.60;99.90
13336;DHT22;6737;51.480;11.962;2022-12-10T07:56:16;0.60;99.90
13336;DHT22;6737;51.480;11.962;2022-12-10T07:58:44;0.70;99.90
13336;DHT22;6737;51.480;11.962;2022-12-10T08:01:13;0.70;99.90
13336;DHT22;6737;51.480;11.962;2022-12-10T08:03:39;0.70;99.90
13336;DHT22;6737;51.480;11.962;2022-12-10T08:06:11;0.70;99.90
13336;DHT22;6737;51.480;11.962;2022-12-10T08:08:38;0.80;99.90
13336;DHT22;6737;51.480;11.962;2022-12-10T08:11:04;0.70;99.90
13336;DHT22;6737;51.480;11.962;2022-12-10T08:13:30;0.70;99.90
13336;DHT22;6737;51.480;11.962;2022-12-10T08:16:14;0.60;99.90
13336;DHT22;6737;51.480;11.962;2022-12-10T08:18:41;0.70;99.90
13336;DHT22;6737;51.480;11.962;2022-12-10T08:21:15;0.60;99.90
13336;DHT22;6737;51.480;11.962;2022-12-10T08:23:42;0.60;99.90
13336;DHT22;6737;51.480;11.962;2022-12-10T08:26:12;0.60;99.90
13336;DHT22;6737;51.480;11.962;2022-12-10T08:28:38;0.70;99.90
13336;DHT22;6737;51.480;11.962;2022-12-10T08:31:05;0.70;99.90
13336;DHT22;6737;51.480;11.962;2022-12-10T08:33:34;0.70;99.90
13336;DHT22;6737;51.480;11.962;2022-12-10T08:36:00;0.70;99.90
13336;DHT22;6737;51.480;11.962;2022-12-10T08:38:27;0.70;99.90
13336;DHT22;6737;51.480;11.962;2022-12-10T08:40:52;0.70;99.90
13336;DHT22;6737;51.480;11.962;2022-12-10T08:43:18;0.70;99.90
13336;DHT22;6737;51.480;11.962;2022-12-10T08:45:44;0.60;99.90
13336;DHT22;6737;51.480;11.962;2022-12-10T08:48:10;0.60;99.90
13336;DHT22;6737;51.480;11.962;2022-12-10T08:50:37;0.50;99.90
13336;DHT22;6737;51.480;11.962;2022-12-10T08:53:03;0.60;99.90
13336;DHT22;6737;51.480;11.962;2022-12-10T08:55:29;0.50;99.90
13336;DHT22;6737;51.480;11.962;2022-12-10T08:57:56;0.50;99.90
13336;DHT22;6737;51.480;11.962;2022-12-10T09:00:22;0.60;99.90
13336;DHT22;6737;51.480;11.962;2022-12-10T09:02:48;0.60;99.90
13336;DHT22;6737;51.480;11.962;2022-12-10T09:05:14;0.60;99.90
13336;DHT22;6737;51.480;11.962;2022-12-10T09:07:40;0.60;99.90
13336;DHT22;6737;51.480;11.962;2022-12-10T09:10:06;0.50;99.90
13336;DHT22;6737;51.480;11.962;2022-12-10T09:12:33;0.50;99.90
13336;DHT22;6737;51.480;11.962;2022-12-10T09:14:59;0.50;99.90
13336;DHT22;6737;51.480;11.962;2022-12-10T09:17:25;0.60;99.90
13336;DHT22;6737;51.480;11.962;2022-12-10T09:19:51;0.50;99.90
13336;DHT22;6737;51.480;11.962;2022-12-10T09:22:16;0.50;99.90
13336;DHT22;6737;51.480;11.962;2022-12-10T09:24:42;0.50;99.90
13336;DHT22;6737;51.480;11.962;2022-12-10T09:27:08;0.50;99.90
13336;DHT22;6737;51.480;11.962;2022-12-10T09:29:34;0.60;99.90
13336;DHT22;6737;51.480;11.962;2022-12-10T09:31:59;0.60;99.90
13336;DHT22;6737;51.480;11.962;2022-12-10T09:34:25;0.60;99.90
13336;DHT22;6737;51.480;11.962;2022-12-10T09:36:51;0.60;99.90
13336;DHT22;6737;51.480;11.962;2022-12-10T09:39:17;0.70;99.90
13336;DHT22;6737;51.480;11.962;2022-12-10T09:47:24;0.60;99.90
13336;DHT22;6737;51.480;11.962;2022-12-10T09:50:31;0.60;99.90
13336;DHT22;6737;51.480;11.962;2022-12-10T09:53:00;0.50;99.90
13336;DHT22;6737;51.480;11.962;2022-12-10T09:55:34;0.60;99.90
13336;DHT22;6737;51.480;11.962;2022-12-10T09:58:04;0.70;99.90
13336;DHT22;6737;51.480;11.962;2022-12-10T10:00:39;0.60;99.90
13336;DHT22;6737;51.480;11.962;2022-12-10T10:03:05;0.70;99.90
13336;DHT22;6737;51.480;11.962;2022-12-10T10:05:46;0.70;99.90
13336;DHT22;6737;51.480;11.962;2022-12-10T10:08:36;0.70;99.90
13336;DHT22;6737;51.480;11.962;2022-12-10T10:11:04;0.60;99.90
13336;DHT22;6737;51.480;11.962;2022-12-10T10:13:43;0.60;99.90
13336;DHT22;6737;51.480;11.962;2022-12-10T10:16:25;0.70;99.90
13336;DHT22;6737;51.480;11.962;2022-12-10T10:18:58;0.70;99.90
13336;DHT22;6737;51.480;11.962;2022-12-10T10:21:41;0.70;99.90
13336;DHT22;6737;51.480;11.962;2022-12-10T10:24:12;0.70;99.90
13336;DHT22;6737;51.480;11.962;2022-12-10T10:26:39;0.70;99.90
13336;DHT22;6737;51.480;11.962;2022-12-10T10:29:07;0.70;99.90
13336;DHT22;6737;51.480;11.962;2022-12-10T10:31:36;0.70;99.90
13336;DHT22;6737;51.480;11.962;2022-12-10T10:34:12;0.70;99.90
13336;DHT22;6737;51.480;11.962;2022-12-10T10:36:39;0.60;99.90
13336;DHT22;6737;51.480;11.962;2022-12-10T10:41:47;0.70;99.90
13336;DHT22;6737;51.480;11.962;2022-12-10T10:44:19;0.70;99.90
13336;DHT22;6737;51.480;11.962;2022-12-10T10:46:48;0.80;99.90
13336;DHT22;6737;51.480;11.962;2022-12-10T10:51:44;0.80;99.90
13336;DHT22;6737;51.480;11.962;2022-12-10T10:54:11;0.80;99.90
13336;DHT22;6737;51.480;11.962;2022-12-10T10:56:42;0.70;99.90
13336;DHT22;6737;51.480;11.962;2022-12-10T11:01:54;0.80;99.90
13336;DHT22;6737;51.480;11.962;2022-12-10T11:04:47;0.80;99.90
13336;DHT22;6737;51.480;11.962;2022-12-10T11:07:26;0.80;99.90
13336;DHT22;6737;51.480;11.962;2022-12-10T11:09:58;0.80;99.90
13336;DHT22;6737;51.480;11.962;2022-12-10T11:12:29;0.90;99.90
13336;DHT22;6737;51.480;11.962;2022-12-10T11:14:56;0.90;99.90
13336;DHT22;6737;51.480;11.962;2022-12-10T11:17:25;0.90;99.90
13336;DHT22;6737;51.480;11.962;2022-12-10T11:20:17;0.90;99.90
13336;DHT22;6737;51.480;11.962;2022-12-10T11:23:08;0.90;99.90
13336;DHT22;6737;51.480;11.962;2022-12-10T11:37:38;0.90;99.90
13336;DHT22;6737;51.480;11.962;2022-12-10T11:40:33;0.90;99.90
13336;DHT22;6737;51.480;11.962;2022-12-10T11:46:00;0.90;99.90
13336;DHT22;6737;51.480;11.962;2022-12-10T11:48:41;1.00;99.90
13336;DHT22;6737;51.480;11.962;2022-12-10T11:56:33;1.00;99.90
13336;DHT22;6737;51.480;11.962;2022-12-10T12:12:42;1.10;99.90
13336;DHT22;6737;51.480;11.962;2022-12-10T12:15:23;1.00;99.90
13336;DHT22;6737;51.480;11.962;2022-12-10T12:17:59;1.10;99.90
13336;DHT22;6737;51.480;11.962;2022-12-10T12:20:33;1.10;99.90
13336;DHT22;6737;51.480;11.962;2022-12-10T12:23:24;1.10;99.90
13336;DHT22;6737;51.480;11.962;2022-12-10T12:25:57;1.10;99.90
13336;DHT22;6737;51.480;11.962;2022-12-10T12:31:10;1.20;99.90
13336;DHT22;6737;51.480;11.962;2022-12-10T12:34:03;1.10;99.90
13336;DHT22;6737;51.480;11.962;2022-12-10T12:36:34;1.20;99.90
13336;DHT22;6737;51.480;11.962;2022-12-10T12:39:02;1.20;99.90
13336;DHT22;6737;51.480;11.962;2022-12-10T12:41:40;1.30;99.90
13336;DHT22;6737;51.480;11.962;2022-12-10T12:47:16;1.20;99.90
13336;DHT22;6737;51.480;11.962;2022-12-10T12:49:48;1.10;99.90
13336;DHT22;6737;51.480;11.962;2022-12-10T12:52:43;1.10;99.90
13336;DHT22;6737;51.480;11.962;2022-12-10T12:58:10;1.20;99.90
13336;DHT22;6737;51.480;11.962;2022-12-10T13:00:40;1.10;99.90
13336;DHT22;6737;51.480;11.962;2022-12-10T13:22:04;1.20;99.90
13336;DHT22;6737;51.480;11.962;2022-12-10T13:29:46;1.20;99.90
13336;DHT22;6737;51.480;11.962;2022-12-10T13:32:22;1.20;99.90
13336;DHT22;6737;51.480;11.962;2022-12-10T13:35:27;1.20;99.90
13336;DHT22;6737;51.480;11.962;2022-12-10T13:38:03;1.20;99.90
13336;DHT22;6737;51.480;11.962;2022-12-10T13:43:37;1.10;99.90
13336;DHT22;6737;51.480;11.962;2022-12-10T13:46:40;1.10;99.90
13336;DHT22;6737;51.480;11.962;2022-12-10T13:49:19;1.10;99.90
13336;DHT22;6737;51.480;11.962;2022-12-10T13:54:24;1.10;99.90
13336;DHT22;6737;51.480;11.962;2022-12-10T14:05:07;1.10;99.90
13336;DHT22;6737;51.480;11.962;2022-12-10T14:07:38;1.10;99.90
13336;DHT22;6737;51.480;11.962;2022-12-10T14:10:12;1.00;99.90
13336;DHT22;6737;51.480;11.962;2022-12-10T14:12:41;0.90;99.90
13336;DHT22;6737;51.480;11.962;2022-12-10T14:15:17;0.90;99.90
13336;DHT22;6737;51.480;11.962;2022-12-10T14:17:44;0.90;99.90
13336;DHT22;6737;51.480;11.962;2022-12-10T14:20:19;0.80;99.90
13336;DHT22;6737;51.480;11.962;2022-12-10T14:22:50;0.80;99.90
13336;DHT22;6737;51.480;11.962;2022-12-10T14:25:19;0.80;99.90
13336;DHT22;6737;51.480;11.962;2022-12-10T14:27:53;0.80;99.90
13336;DHT22;6737;51.480;11.962;2022-12-10T14:30:24;0.80;99.90
13336;DHT22;6737;51.480;11.962;2022-12-10T14:32:55;0.80;99.90
13336;DHT22;6737;51.480;11.962;2022-12-10T14:35:24;0.90;99.90
13336;DHT22;6737;51.480;11.962;2022-12-10T14:37:53;0.80;99.90
13336;DHT22;6737;51.480;11.962;2022-12-10T14:40:39;0.80;99.90
13336;DHT22;6737;51.480;11.962;2022-12-10T14:43:15;0.80;99.90
13336;DHT22;6737;51.480;11.962;2022-12-10T14:45:54;0.90;99.90
13336;DHT22;6737;51.480;11.962;2022-12-10T14:48:22;0.80;99.90
13336;DHT22;6737;51.480;11.962;2022-12-10T14:50:48;0.80;99.90
13336;DHT22;6737;51.480;11.962;2022-12-10T14:53:17;0.70;99.90
13336;DHT22;6737;51.480;11.962;2022-12-10T14:55:45;0.70;99.90
13336;DHT22;6737;51.480;11.962;2022-12-10T14:58:22;0.70;99.90
13336;DHT22;6737;51.480;11.962;2022-12-10T15:00:53;0.80;99.90
13336;DHT22;6737;51.480;11.962;2022-12-10T15:03:31;0.80;99.90
13336;DHT22;6737;51.480;11.962;2022-12-10T15:05:59;0.80;99.90
13336;DHT22;6737;51.480;11.962;2022-12-10T15:08:26;0.80;99.90
13336;DHT22;6737;51.480;11.962;2022-12-10T15:10:58;0.80;99.90
13336;DHT22;6737;51.480;11.962;2022-12-10T15:13:37;0.80;99.90
13336;DHT22;6737;51.480;11.962;2022-12-10T15:16:04;0.80;99.90
13336;DHT22;6737;51.480;11.962;2022-12-10T15:18:36;0.80;99.90
13336;DHT22;6737;51.480;11.962;2022-12-10T15:21:16;0.80;99.90
13336;DHT22;6737;51.480;11.962;2022-12-10T15:23:45;0.80;99.90
13336;DHT22;6737;51.480;11.962;2022-12-10T15:26:17;0.80;99.90
13336;DHT22;6737;51.480;11.962;2022-12-10T15:28:45;0.70;99.90
13336;DHT22;6737;51.480;11.962;2022-12-10T15:33:46;0.70;99.90
13336;DHT22;6737;51.480;11.962;2022-12-10T15:36:33;0.70;99.90
13336;DHT22;6737;51.480;11.962;2022-12-10T15:39:20;0.70;99.90
13336;DHT22;6737;51.480;11.962;2022-12-10T15:41:58;0.70;99.90
13336;DHT22;6737;51.480;11.962;2022-12-10T15:44:31;0.80;99.90
13336;DHT22;6737;51.480;11.962;2022-12-10T15:49:45;0.80;99.90
13336;DHT22;6737;51.480;11.962;2022-12-10T15:52:14;0.80;99.90
13336;DHT22;6737;51.480;11.962;2022-12-10T15:54:45;0.80;99.90
13336;DHT22;6737;51.480;11.962;2022-12-10T15:57:16;0.70;99.90
13336;DHT22;6737;51.480;11.962;2022-12-10T15:59:44;0.70;99.90
13336;DHT22;6737;51.480;11.962;2022-12-10T16:04:57;0.60;99.90
13336;DHT22;6737;51.480;11.962;2022-12-10T16:07:23;0.60;99.90
13336;DHT22;6737;51.480;11.962;2022-12-10T16:09:49;0.60;99.90
13336;DHT22;6737;51.480;11.962;2022-12-10T16:12:16;0.50;99.90
13336;DHT22;6737;51.480;11.962;2022-12-10T16:14:51;0.50;99.90
13336;DHT22;6737;51.480;11.962;2022-12-10T16:17:19;0.50;99.90
13336;DHT22;6737;51.480;11.962;2022-12-10T16:19:45;0.60;99.90
13336;DHT22;6737;51.480;11.962;2022-12-10T16:22:12;0.60;99.90
13336;DHT22;6737;51.480;11.962;2022-12-10T16:24:38;0.50;99.90
13336;DHT22;6737;51.480;11.962;2022-12-10T16:27:14;0.50;99.90
13336;DHT22;6737;51.480;11.962;2022-12-10T16:29:41;0.50;99.90
13336;DHT22;6737;51.480;11.962;2022-12-10T16:32:11;0.50;99.90
13336;DHT22;6737;51.480;11.962;2022-12-10T16:34:38;0.50;99.90
13336;DHT22;6737;51.480;11.962;2022-12-10T16:37:05;0.60;99.90
13336;DHT22;6737;51.480;11.962;2022-12-10T16:39:31;0.50;99.90
13336;DHT22;6737;51.480;11.962;2022-12-10T16:41:57;0.50;99.90
13336;DHT22;6737;51.480;11.962;2022-12-10T16:44:25;0.60;99.90
13336;DHT22;6737;51.480;11.962;2022-12-10T16:46:51;0.60;99.90
13336;DHT22;6737;51.480;11.962;2022-12-10T16:49:16;0.60;99.90
13336;DHT22;6737;51.480;11.962;2022-12-10T16:51:42;0.60;99.90
13336;DHT22;6737;51.480;11.962;2022-12-10T16:54:11;0.60;99.90
13336;DHT22;6737;51.480;11.962;2022-12-10T16:56:39;0.60;99.90
13336;DHT22;6737;51.480;11.962;2022-12-10T16:59:05;0.60;99.90
13336;DHT22;6737;51.480;11.962;2022-12-10T17:01:30;0.60;99.90
13336;DHT22;6737;51.480;11.962;2022-12-10T17:03:57;0.60;99.90
13336;DHT22;6737;51.480;11.962;2022-12-10T17:06:24;0.60;99.90
13336;DHT22;6737;51.480;11.962;2022-12-10T17:08:50;0.70;99.90
13336;DHT22;6737;51.480;11.962;2022-12-10T17:11:36;0.70;99.90
13336;DHT22;6737;51.480;11.962;2022-12-10T17:14:24;0.60;99.90
13336;DHT22;6737;51.480;11.962;2022-12-10T17:16:53;0.60;99.90
13336;DHT22;6737;51.480;11.962;2022-12-10T17:19:19;0.70;99.90
13336;DHT22;6737;51.480;11.962;2022-12-10T17:21:46;0.70;99.90
13336;DHT22;6737;51.480;11.962;2022-12-10T17:24:11;0.60;99.90
13336;DHT22;6737;51.480;11.962;2022-12-10T17:26:40;0.60;99.90
13336;DHT22;6737;51.480;11.962;2022-12-10T17:29:17;0.60;99.90
13336;DHT22;6737;51.480;11.962;2022-12-10T17:31:44;0.50;99.90
13336;DHT22;6737;51.480;11.962;2022-12-10T17:34:11;0.50;99.90
13336;DHT22;6737;51.480;11.962;2022-12-10T17:36:39;0.60;99.90
13336;DHT22;6737;51.480;11.962;2022-12-10T17:39:05;0.60;99.90
13336;DHT22;6737;51.480;11.962;2022-12-10T17:41:31;0.50;99.90
13336;DHT22;6737;51.480;11.962;2022-12-10T17:43:57;0.50;99.90
13336;DHT22;6737;51.480;11.962;2022-12-10T17:46:25;0.40;99.90
13336;DHT22;6737;51.480;11.962;2022-12-10T17:48:51;0.40;99.90
13336;DHT22;6737;51.480;11.962;2022-12-10T17:51:18;0.40;99.90
13336;DHT22;6737;51.480;11.962;2022-12-10T17:53:44;0.40;99.90
13336;DHT22;6737;51.480;11.962;2022-12-10T17:56:19;0.40;99.90
13336;DHT22;6737;51.480;11.962;2022-12-10T17:58:48;0.40;99.90
13336;DHT22;6737;51.480;11.962;2022-12-10T18:01:14;0.40;99.90
13336;DHT22;6737;51.480;11.962;2022-12-10T18:03:41;0.40;99.90
13336;DHT22;6737;51.480;11.962;2022-12-10T18:06:18;0.40;99.90
13336;DHT22;6737;51.480;11.962;2022-12-10T18:08:45;0.40;99.90